createdAt,value
2023-04-22T00:02:16.815Z,12.00
2023-04-22T00:04:46.397Z,12.00
2023-04-22T00:07:15.115Z,12.10
2023-04-22T00:09:42.213Z,12.10
2023-04-22T00:12:11.364Z,12.20
2023-04-22T00:14:38.740Z,12.20
2023-04-22T00:17:07.004Z,12.10
2023-04-22T00:19:34.371Z,12.10
2023-04-22T00:22:01.052Z,12.10
2023-04-22T00:24:27.602Z,12.10
2023-04-22T00:26:54.212Z,12.00
2023-04-22T00:29:20.842Z,11.90
2023-04-22T00:31:47.466Z,11.80
2023-04-22T00:34:14.182Z,11.80
2023-04-22T00:36:40.800Z,11.70
2023-04-22T00:39:07.342Z,11.70
2023-04-22T00:41:34.555Z,11.60
2023-04-22T00:44:01.614Z,11.60
2023-04-22T00:46:28.748Z,11.50
2023-04-22T00:48:55.602Z,11.40
2023-04-22T00:51:22.150Z,11.30
2023-04-22T00:53:48.695Z,11.20
2023-04-22T00:56:15.860Z,11.20
2023-04-22T00:58:43.091Z,11.20
2023-04-22T01:01:09.778Z,11.20
2023-04-22T01:03:38.812Z,11.30
2023-04-22T01:06:06.144Z,11.30
2023-04-22T01:08:33.535Z,11.40
2023-04-22T01:11:00.668Z,11.40
2023-04-22T01:13:27.263Z,11.40
2023-04-22T01:15:54.071Z,11.40
2023-04-22T01:18:20.635Z,11.50
2023-04-22T01:20:47.306Z,11.60
2023-04-22T01:23:21.277Z,11.60
2023-04-22T01:25:48.989Z,11.70
2023-04-22T01:28:16.817Z,11.80
2023-04-22T01:30:43.978Z,11.80
2023-04-22T01:33:11.396Z,11.90
2023-04-22T01:35:38.774Z,11.90
2023-04-22T01:38:07.878Z,11.80
2023-04-22T01:40:34.810Z,11.80
2023-04-22T01:43:02.451Z,11.80
2023-04-22T01:45:29.716Z,11.70
2023-04-22T01:47:56.388Z,11.70
2023-04-22T01:50:23.660Z,11.70
2023-04-22T01:52:50.547Z,11.60
2023-04-22T01:55:17.160Z,11.70
2023-04-22T01:57:44.001Z,11.60
2023-04-22T02:00:11.151Z,11.60
2023-04-22T02:02:37.857Z,11.60
2023-04-22T02:05:06.408Z,11.50
2023-04-22T02:07:33.037Z,11.50
2023-04-22T02:09:59.718Z,11.50
2023-04-22T02:12:26.307Z,11.50
2023-04-22T02:14:53.017Z,11.50
2023-04-22T02:17:19.587Z,11.50
2023-04-22T02:19:46.167Z,11.40
2023-04-22T02:22:12.775Z,11.40
2023-04-22T02:24:39.407Z,11.30
2023-04-22T02:27:06.205Z,11.20
2023-04-22T02:29:32.896Z,11.20
2023-04-22T02:32:00.072Z,11.10
2023-04-22T02:34:27.026Z,11.00
2023-04-22T02:36:53.788Z,11.00
2023-04-22T02:39:20.538Z,10.90
2023-04-22T02:41:47.151Z,10.90
2023-04-22T02:44:13.727Z,10.80
2023-04-22T02:46:40.493Z,10.80
2023-04-22T02:49:07.076Z,10.70
2023-04-22T02:51:33.636Z,10.70
2023-04-22T02:54:00.402Z,10.60
2023-04-22T02:56:27.338Z,10.50
2023-04-22T02:58:53.885Z,10.40
2023-04-22T03:01:20.593Z,10.40
2023-04-22T03:03:47.321Z,10.30
2023-04-22T03:06:14.106Z,10.20
2023-04-22T03:08:40.711Z,10.20
2023-04-22T03:11:07.336Z,10.10
2023-04-22T03:13:33.881Z,10.00
2023-04-22T03:16:00.588Z,10.00
2023-04-22T03:18:27.226Z,9.90
2023-04-22T03:20:53.840Z,9.80
2023-04-22T03:23:20.480Z,9.70
2023-04-22T03:25:47.037Z,9.70
2023-04-22T03:28:13.637Z,9.70
2023-04-22T03:30:40.236Z,9.60
2023-04-22T03:33:06.930Z,9.60
2023-04-22T03:35:33.570Z,9.60
2023-04-22T03:38:00.133Z,9.60
2023-04-22T03:40:26.729Z,9.60
2023-04-22T03:42:53.284Z,9.60
2023-04-22T03:45:19.850Z,9.60
2023-04-22T03:47:46.865Z,9.60
2023-04-22T03:50:13.438Z,9.60
2023-04-22T03:52:40.336Z,9.60
2023-04-22T03:55:07.231Z,9.60
2023-04-22T03:57:33.781Z,9.60
2023-04-22T04:00:00.417Z,9.60
2023-04-22T04:02:27.124Z,9.60
2023-04-22T04:04:54.157Z,9.60
2023-04-22T04:07:20.943Z,9.60
2023-04-22T04:09:47.522Z,9.70
2023-04-22T04:12:14.064Z,9.60
2023-04-22T04:14:40.647Z,9.70
2023-04-22T04:17:09.056Z,9.70
2023-04-22T04:19:36.934Z,9.70
2023-04-22T04:22:03.666Z,9.70
2023-04-22T04:24:30.425Z,9.70
2023-04-22T04:26:57.988Z,9.70
2023-04-22T04:29:25.111Z,9.80
2023-04-22T04:31:51.871Z,9.80
2023-04-22T04:34:19.042Z,9.80
2023-04-22T04:36:46.396Z,9.80
2023-04-22T04:39:13.002Z,9.90
2023-04-22T04:41:41.101Z,9.80
2023-04-22T04:44:07.713Z,9.90
2023-04-22T04:46:34.619Z,9.90
2023-04-22T04:49:01.754Z,9.90
2023-04-22T04:51:28.330Z,9.90
2023-04-22T04:53:54.908Z,9.90
2023-04-22T04:56:21.503Z,10.00
2023-04-22T04:58:48.054Z,10.10
2023-04-22T05:01:14.680Z,10.10
2023-04-22T05:03:41.622Z,10.20
2023-04-22T05:06:08.411Z,10.30
2023-04-22T05:08:35.152Z,10.50
2023-04-22T05:11:01.731Z,10.60
2023-04-22T05:13:28.348Z,10.70
2023-04-22T05:15:55.053Z,10.80
2023-04-22T05:18:22.176Z,10.90
2023-04-22T05:20:49.040Z,11.00
2023-04-22T05:23:15.662Z,11.20
2023-04-22T05:25:42.544Z,11.30
2023-04-22T05:28:09.387Z,11.30
2023-04-22T05:30:36.138Z,11.50
2023-04-22T05:33:02.843Z,11.60
2023-04-22T05:35:29.522Z,11.70
2023-04-22T05:37:56.123Z,11.70
2023-04-22T05:40:22.795Z,11.80
2023-04-22T05:42:49.368Z,12.00
2023-04-22T05:45:16.098Z,12.10
2023-04-22T05:47:42.713Z,12.30
2023-04-22T05:50:09.463Z,12.40
2023-04-22T05:52:36.047Z,12.60
2023-04-22T05:55:02.644Z,12.70
2023-04-22T05:57:29.402Z,12.70
2023-04-22T05:59:55.954Z,12.80
2023-04-22T06:02:22.672Z,12.70
2023-04-22T06:04:49.964Z,12.70
2023-04-22T06:07:16.967Z,12.80
2023-04-22T06:09:43.647Z,12.90
2023-04-22T06:12:10.805Z,13.00
2023-04-22T06:14:37.407Z,13.10
2023-04-22T06:17:04.119Z,13.10
2023-04-22T06:19:30.740Z,13.20
2023-04-22T06:21:57.281Z,13.40
2023-04-22T06:24:23.850Z,13.60
2023-04-22T06:26:50.446Z,14.00
2023-04-22T06:29:17.125Z,15.30
2023-04-22T06:31:43.737Z,16.70
2023-04-22T06:34:10.899Z,17.70
2023-04-22T06:36:37.682Z,18.10
2023-04-22T06:39:05.659Z,18.20
2023-04-22T06:41:33.073Z,18.50
2023-04-22T06:43:59.669Z,18.40
2023-04-22T06:46:26.264Z,17.90
2023-04-22T06:48:52.842Z,17.40
2023-04-22T06:51:19.573Z,17.30
2023-04-22T06:53:46.393Z,17.10
2023-04-22T06:56:13.004Z,16.70
2023-04-22T06:58:39.570Z,16.70
2023-04-22T07:01:06.170Z,17.00
2023-04-22T07:03:32.858Z,17.50
2023-04-22T07:05:59.507Z,18.20
2023-04-22T07:08:26.165Z,19.00
2023-04-22T07:10:52.804Z,19.40
2023-04-22T07:13:19.624Z,20.60
2023-04-22T07:15:46.374Z,20.40
2023-04-22T07:18:13.027Z,20.50
2023-04-22T07:20:39.596Z,20.10
2023-04-22T07:23:06.388Z,19.80
2023-04-22T07:25:33.032Z,19.40
2023-04-22T07:27:59.746Z,19.10
2023-04-22T07:30:26.458Z,18.80
2023-04-22T07:32:53.147Z,18.40
2023-04-22T07:35:19.756Z,18.20
2023-04-22T07:37:46.396Z,18.00
2023-04-22T07:40:13.966Z,18.10
2023-04-22T07:42:40.930Z,18.50
2023-04-22T07:45:08.102Z,19.00
2023-04-22T07:47:34.759Z,19.20
2023-04-22T07:50:01.362Z,19.80
2023-04-22T07:52:27.962Z,20.20
2023-04-22T07:54:54.524Z,20.80
2023-04-22T07:57:22.552Z,21.10
2023-04-22T07:59:49.673Z,21.30
2023-04-22T08:02:16.313Z,20.70
2023-04-22T08:04:43.372Z,20.20
2023-04-22T08:07:30.470Z,20.30
2023-04-22T08:09:56.800Z,20.10
2023-04-22T08:12:23.610Z,20.20
2023-04-22T08:14:50.645Z,21.10
2023-04-22T08:17:17.278Z,23.90
2023-04-22T08:19:43.829Z,26.00
2023-04-22T08:22:23.642Z,26.90
2023-04-22T08:24:50.282Z,26.90
2023-04-22T08:27:16.947Z,26.30
2023-04-22T08:29:43.781Z,25.20
2023-04-22T08:32:10.576Z,24.70
2023-04-22T08:34:37.270Z,23.90
2023-04-22T08:37:04.016Z,23.00
2023-04-22T08:39:30.895Z,22.40
2023-04-22T08:41:58.223Z,22.70
2023-04-22T08:44:25.627Z,22.80
2023-04-22T08:46:53.303Z,23.00
2023-04-22T08:49:20.370Z,23.30
2023-04-22T08:51:46.987Z,23.70
2023-04-22T08:54:13.620Z,24.30
2023-04-22T08:56:43.035Z,24.80
2023-04-22T08:59:13.690Z,25.50
2023-04-22T09:01:41.429Z,26.20
2023-04-22T09:04:10.753Z,27.10
2023-04-22T09:06:39.125Z,27.80
2023-04-22T09:09:08.480Z,28.30
2023-04-22T09:11:35.906Z,28.80
2023-04-22T09:14:06.501Z,28.70
2023-04-22T09:16:39.830Z,29.00
2023-04-22T09:19:06.482Z,28.40
2023-04-22T09:21:33.554Z,27.70
2023-04-22T09:24:02.355Z,28.00
2023-04-22T09:26:29.031Z,28.60
2023-04-22T09:29:00.884Z,29.10
2023-04-22T09:31:28.304Z,30.80
2023-04-22T09:33:57.333Z,31.80
2023-04-22T09:36:27.220Z,31.70
2023-04-22T09:38:55.759Z,31.40
2023-04-22T09:41:30.147Z,31.10
2023-04-22T09:43:59.582Z,31.60
2023-04-22T09:46:28.296Z,32.10
2023-04-22T09:48:56.741Z,33.80
2023-04-22T09:51:23.694Z,35.20
2023-04-22T09:54:01.377Z,34.80
2023-04-22T09:56:45.642Z,34.10
2023-04-22T09:59:12.519Z,32.50
2023-04-22T10:01:41.319Z,31.60
2023-04-22T10:04:14.636Z,30.90
2023-04-22T10:06:42.358Z,29.10
2023-04-22T10:09:09.716Z,29.20
2023-04-22T10:11:37.540Z,30.70
2023-04-22T10:14:05.247Z,30.20
2023-04-22T10:16:33.745Z,29.20
2023-04-22T10:19:04.381Z,29.50
2023-04-22T10:21:32.293Z,30.20
2023-04-22T10:23:59.957Z,30.60
2023-04-22T10:26:49.346Z,30.80
2023-04-22T10:29:19.269Z,29.30
2023-04-22T10:32:14.517Z,29.10
2023-04-22T10:34:41.179Z,28.90
2023-04-22T10:37:11.948Z,28.40
2023-04-22T10:39:41.208Z,28.20
2023-04-22T10:42:15.454Z,27.40
2023-04-22T10:44:53.368Z,26.50
2023-04-22T10:47:35.085Z,26.00
2023-04-22T10:50:24.189Z,25.80
2023-04-22T10:53:15.848Z,25.20
2023-04-22T10:55:53.340Z,25.30
2023-04-22T10:58:21.595Z,25.70
2023-04-22T11:00:54.212Z,26.20
2023-04-22T11:03:30.307Z,26.80
2023-04-22T11:06:17.771Z,26.40
2023-04-22T11:08:48.628Z,26.20
2023-04-22T11:11:18.424Z,27.10
2023-04-22T11:13:47.362Z,27.10
2023-04-22T11:16:14.058Z,27.00
2023-04-22T11:18:40.779Z,26.30
2023-04-22T11:21:08.644Z,26.70
2023-04-22T11:23:36.635Z,27.50
2023-04-22T11:26:05.644Z,27.60
2023-04-22T11:28:32.534Z,27.80
2023-04-22T11:31:04.361Z,28.70
2023-04-22T11:33:33.585Z,28.70
2023-04-22T11:36:00.899Z,28.10
2023-04-22T11:38:27.917Z,28.60
2023-04-22T11:40:57.701Z,28.30
2023-04-22T11:43:24.382Z,27.70
2023-04-22T11:45:51.074Z,27.80
2023-04-22T11:48:17.696Z,27.40
2023-04-22T11:50:44.790Z,27.70
2023-04-22T11:53:15.957Z,27.30
2023-04-22T11:55:44.432Z,26.60
2023-04-22T11:58:16.744Z,27.30
2023-04-22T12:00:44.242Z,28.20
2023-04-22T12:03:15.442Z,28.10
2023-04-22T12:05:43.692Z,27.80
2023-04-22T12:08:21.780Z,27.90
2023-04-22T12:10:55.015Z,28.00
2023-04-22T12:13:22.411Z,27.50
2023-04-22T12:15:53.500Z,27.30
2023-04-22T12:18:40.194Z,27.00
2023-04-22T12:21:06.740Z,27.60
2023-04-22T12:23:46.859Z,28.00
2023-04-22T12:26:13.826Z,28.20
2023-04-22T12:28:41.408Z,27.60
2023-04-22T12:31:08.779Z,26.90
2023-04-22T12:33:36.970Z,26.30
2023-04-22T12:36:04.595Z,25.80
2023-04-22T12:38:31.397Z,25.70
2023-04-22T12:40:58.583Z,26.10
2023-04-22T12:43:25.545Z,25.90
2023-04-22T12:45:52.380Z,25.80
2023-04-22T12:48:19.097Z,25.60
2023-04-22T12:50:46.742Z,25.40
2023-04-22T12:53:13.372Z,25.60
2023-04-22T12:55:40.938Z,25.10
2023-04-22T12:58:07.641Z,25.10
2023-04-22T13:00:34.559Z,25.00
2023-04-22T13:03:01.440Z,24.60
2023-04-22T13:05:28.146Z,23.90
2023-04-22T13:10:26.003Z,23.20
2023-04-22T13:12:53.135Z,23.70
2023-04-22T13:15:20.427Z,24.80
2023-04-22T13:17:49.149Z,25.40
2023-04-22T13:20:17.585Z,25.80
2023-04-22T13:22:44.191Z,26.10
2023-04-22T13:25:11.140Z,26.00
2023-04-22T13:27:37.864Z,26.00
2023-04-22T13:30:07.284Z,26.00
2023-04-22T13:32:33.999Z,26.20
2023-04-22T13:35:02.856Z,26.60
2023-04-22T13:37:29.851Z,26.60
2023-04-22T13:39:56.418Z,26.20
2023-04-22T13:42:23.258Z,25.50
2023-04-22T13:44:49.893Z,24.80
2023-04-22T13:47:16.980Z,24.20
2023-04-22T13:49:43.545Z,24.20
2023-04-22T13:52:10.258Z,24.40
2023-04-22T13:54:37.084Z,24.70
2023-04-22T13:57:03.831Z,24.40
2023-04-22T13:59:31.334Z,24.30
2023-04-22T14:01:57.871Z,24.30
2023-04-22T14:04:24.549Z,24.60
2023-04-22T14:06:51.158Z,24.70
2023-04-22T14:09:17.874Z,24.90
2023-04-22T14:11:44.452Z,25.10
2023-04-22T14:14:11.028Z,24.80
2023-04-22T14:16:37.773Z,24.80
2023-04-22T14:19:05.988Z,25.10
2023-04-22T14:21:32.671Z,25.20
2023-04-22T14:23:59.248Z,24.70
2023-04-22T14:26:26.222Z,24.30
2023-04-22T14:28:52.882Z,24.30
2023-04-22T14:31:19.897Z,24.10
2023-04-22T14:33:46.568Z,23.90
2023-04-22T14:36:13.162Z,23.60
2023-04-22T14:38:39.745Z,23.40
2023-04-22T14:41:06.366Z,23.30
2023-04-22T14:43:34.026Z,23.00
2023-04-22T14:46:00.895Z,22.80
2023-04-22T14:48:30.747Z,23.00
2023-04-22T14:50:58.126Z,23.30
2023-04-22T14:53:24.740Z,23.50
2023-04-22T14:55:52.491Z,23.80
2023-04-22T14:58:19.035Z,24.10
2023-04-22T15:00:47.130Z,24.30
2023-04-22T15:03:14.394Z,24.40
2023-04-22T15:05:41.211Z,24.50
2023-04-22T15:08:07.767Z,24.50
2023-04-22T15:10:34.472Z,24.50
2023-04-22T15:13:01.328Z,24.30
2023-04-22T15:15:28.049Z,23.90
2023-04-22T15:17:54.726Z,23.50
2023-04-22T15:20:21.325Z,23.30
2023-04-22T15:22:49.110Z,23.20
2023-04-22T15:25:17.930Z,23.00
2023-04-22T15:27:44.902Z,22.90
2023-04-22T15:30:11.772Z,22.90
2023-04-22T15:32:41.350Z,22.80
2023-04-22T15:35:08.413Z,22.80
2023-04-22T15:37:35.021Z,22.70
2023-04-22T15:40:01.627Z,22.60
2023-04-22T15:42:28.175Z,22.40
2023-04-22T15:44:54.732Z,22.30
2023-04-22T15:47:21.351Z,22.30
2023-04-22T15:49:49.405Z,22.20
2023-04-22T15:52:18.080Z,22.10
2023-04-22T15:54:44.708Z,22.00
2023-04-22T15:57:11.307Z,22.00
2023-04-22T15:59:38.151Z,21.90
2023-04-22T16:02:04.983Z,21.90
2023-04-22T16:04:32.053Z,21.80
2023-04-22T16:06:59.288Z,21.70
2023-04-22T16:09:26.069Z,21.40
2023-04-22T16:11:53.467Z,21.00
2023-04-22T16:14:20.557Z,20.90
2023-04-22T16:16:47.546Z,20.70
2023-04-22T16:19:14.296Z,20.60
2023-04-22T16:21:40.944Z,20.40
2023-04-22T16:24:07.614Z,20.30
2023-04-22T16:26:34.195Z,20.20
2023-04-22T16:29:01.777Z,20.20
2023-04-22T16:31:28.366Z,20.20
2023-04-22T16:33:54.935Z,20.20
2023-04-22T16:36:22.331Z,20.20
2023-04-22T16:38:48.915Z,20.20
2023-04-22T16:41:15.549Z,20.20
2023-04-22T16:43:42.230Z,20.20
2023-04-22T16:46:08.948Z,20.10
2023-04-22T16:48:35.826Z,20.00
2023-04-22T16:51:02.437Z,20.00
2023-04-22T16:53:29.437Z,20.00
2023-04-22T16:55:56.542Z,20.00
2023-04-22T16:58:23.143Z,19.90
2023-04-22T17:00:49.791Z,19.90
2023-04-22T17:03:16.626Z,19.80
2023-04-22T17:05:43.420Z,19.70
2023-04-22T17:08:10.081Z,19.70
2023-04-22T17:10:41.306Z,19.50
2023-04-22T17:13:08.201Z,19.30
2023-04-22T17:15:34.802Z,19.00
2023-04-22T17:18:02.463Z,18.60
2023-04-22T17:20:29.079Z,18.10
2023-04-22T17:22:55.646Z,17.50
2023-04-22T17:25:22.259Z,17.10
2023-04-22T17:27:48.829Z,16.60
2023-04-22T17:30:15.642Z,16.30
2023-04-22T17:32:42.311Z,16.10
2023-04-22T17:35:09.693Z,15.80
2023-04-22T17:37:36.395Z,15.60
2023-04-22T17:40:04.643Z,15.50
2023-04-22T17:42:44.698Z,15.30
2023-04-22T17:45:12.701Z,15.20
2023-04-22T17:47:39.374Z,15.10
2023-04-22T17:50:06.684Z,14.90
2023-04-22T17:52:33.339Z,14.80
2023-04-22T17:55:00.138Z,14.60
2023-04-22T17:57:28.293Z,14.50
2023-04-22T17:59:54.911Z,14.40
2023-04-22T18:02:22.179Z,14.30
2023-04-22T18:04:49.016Z,14.20
2023-04-22T18:07:16.017Z,14.20
2023-04-22T18:09:42.990Z,14.10
2023-04-22T18:12:09.958Z,14.10
2023-04-22T18:14:36.798Z,14.00
2023-04-22T18:17:03.539Z,13.90
2023-04-22T18:19:30.151Z,14.00
2023-04-22T18:21:59.934Z,13.90
2023-04-22T18:24:27.602Z,13.90
2023-04-22T18:26:54.261Z,13.90
2023-04-22T18:29:21.010Z,13.90
2023-04-22T18:31:47.853Z,13.90
2023-04-22T18:34:15.770Z,13.90
2023-04-22T18:36:42.478Z,13.90
2023-04-22T18:39:09.571Z,13.90
2023-04-22T18:41:38.449Z,13.90
2023-04-22T18:44:05.744Z,13.90
2023-04-22T18:46:32.450Z,13.90
2023-04-22T18:48:59.085Z,13.90
2023-04-22T18:51:26.158Z,13.90
2023-04-22T18:53:52.812Z,13.90
2023-04-22T18:56:19.408Z,13.90
2023-04-22T18:58:46.422Z,13.90
2023-04-22T19:01:14.265Z,13.90
2023-04-22T19:03:41.098Z,13.90
2023-04-22T19:06:08.175Z,13.90
2023-04-22T19:08:34.810Z,13.90
2023-04-22T19:11:01.519Z,13.90
2023-04-22T19:13:30.277Z,13.90
2023-04-22T19:15:57.608Z,13.90
2023-04-22T19:18:24.231Z,13.90
2023-04-22T19:20:50.947Z,13.90
2023-04-22T19:23:17.674Z,13.90
2023-04-22T19:25:44.298Z,14.00
2023-04-22T19:28:11.036Z,13.90
2023-04-22T19:30:37.691Z,13.90
2023-04-22T19:33:04.373Z,14.00
2023-04-22T19:35:31.359Z,14.00
2023-04-22T19:37:58.423Z,14.00
2023-04-22T19:40:25.011Z,14.00
2023-04-22T19:42:51.613Z,14.00
2023-04-22T19:45:18.310Z,14.00
2023-04-22T19:47:45.534Z,13.90
2023-04-22T19:50:13.122Z,14.00
2023-04-22T19:52:41.910Z,13.90
2023-04-22T19:55:09.743Z,13.90
2023-04-22T19:57:43.463Z,14.00
2023-04-22T20:00:11.072Z,13.90
2023-04-22T20:02:38.631Z,13.90
2023-04-22T20:05:06.178Z,13.90
2023-04-22T20:07:33.559Z,13.90
2023-04-22T20:10:05.403Z,13.90
2023-04-22T20:12:32.398Z,13.90
2023-04-22T20:15:02.118Z,13.90
2023-04-22T20:17:28.890Z,13.90
2023-04-22T20:19:55.830Z,13.90
2023-04-22T20:22:24.617Z,13.90
2023-04-22T20:25:02.508Z,13.80
2023-04-22T20:27:30.512Z,13.80
2023-04-22T20:29:58.799Z,13.80
2023-04-22T20:32:26.311Z,13.70
2023-04-22T20:34:54.112Z,13.70
2023-04-22T20:37:21.715Z,13.70
2023-04-22T20:39:52.586Z,13.70
2023-04-22T20:42:22.800Z,13.70
2023-04-22T20:44:49.397Z,13.60
2023-04-22T20:47:16.336Z,13.60
2023-04-22T20:49:43.806Z,13.60
2023-04-22T20:52:11.905Z,13.60
2023-04-22T20:54:39.811Z,13.60
2023-04-22T20:57:07.915Z,13.60
2023-04-22T20:59:34.975Z,13.60
2023-04-22T21:02:03.968Z,13.60
2023-04-22T21:04:32.773Z,13.50
2023-04-22T21:07:04.212Z,13.50
2023-04-22T21:09:32.572Z,13.50
2023-04-22T21:11:59.465Z,13.50
2023-04-22T21:14:26.787Z,13.50
2023-04-22T21:17:00.146Z,13.40
2023-04-22T21:19:31.626Z,13.40
2023-04-22T21:22:00.598Z,13.40
2023-04-22T21:24:28.446Z,13.40
2023-04-22T21:26:55.258Z,13.30
2023-04-22T21:29:22.038Z,13.30
2023-04-22T21:32:01.231Z,13.30
2023-04-22T21:34:31.940Z,13.30
2023-04-22T21:36:58.705Z,13.30
2023-04-22T21:39:25.498Z,13.30
2023-04-22T21:41:52.055Z,13.30
2023-04-22T21:44:18.606Z,13.30
2023-04-22T21:46:45.420Z,13.30
2023-04-22T21:49:12.054Z,13.30
2023-04-22T21:51:38.701Z,13.30
2023-04-22T21:54:05.536Z,13.30
2023-04-22T21:56:33.585Z,13.30
2023-04-22T21:59:00.671Z,13.30
2023-04-22T22:01:27.405Z,13.30
2023-04-22T22:03:54.317Z,13.40
2023-04-22T22:06:21.424Z,13.40
2023-04-22T22:08:48.076Z,13.40
2023-04-22T22:11:27.489Z,13.30
2023-04-22T22:13:57.242Z,13.20
2023-04-22T22:16:24.628Z,13.10
2023-04-22T22:18:51.771Z,13.10
2023-04-22T22:21:18.577Z,13.00
2023-04-22T22:23:45.148Z,12.90
2023-04-22T22:26:11.764Z,12.80
2023-04-22T22:28:39.037Z,12.70
2023-04-22T22:31:05.731Z,12.70
2023-04-22T22:33:32.455Z,12.60
2023-04-22T22:35:59.104Z,12.60
2023-04-22T22:38:26.031Z,12.60
2023-04-22T22:40:52.568Z,12.50
2023-04-22T22:43:19.208Z,12.40
2023-04-22T22:45:45.942Z,12.20
2023-04-22T22:48:12.589Z,12.10
2023-04-22T22:50:39.918Z,12.00
2023-04-22T22:53:06.550Z,12.00
2023-04-22T22:55:33.923Z,11.90
2023-04-22T22:58:00.572Z,11.80
2023-04-22T23:00:27.176Z,11.70
2023-04-22T23:02:54.044Z,11.70
2023-04-22T23:05:21.390Z,11.60
2023-04-22T23:07:47.960Z,11.50
2023-04-22T23:10:14.658Z,11.50
2023-04-22T23:12:41.328Z,11.40
2023-04-22T23:15:08.840Z,11.40
2023-04-22T23:17:36.423Z,11.40
2023-04-22T23:20:04.210Z,11.30
2023-04-22T23:22:32.049Z,11.30
2023-04-22T23:24:59.106Z,11.20
2023-04-22T23:27:26.190Z,11.20
2023-04-22T23:29:53.106Z,11.20
2023-04-22T23:32:20.640Z,11.10
2023-04-22T23:34:49.445Z,11.10
2023-04-22T23:37:17.382Z,11.00
2023-04-22T23:39:44.024Z,11.00
2023-04-22T23:42:10.962Z,10.90
2023-04-22T23:44:37.725Z,10.80
2023-04-22T23:47:04.746Z,10.90
2023-04-22T23:49:31.448Z,10.80
2023-04-22T23:51:58.027Z,10.70
2023-04-22T23:54:25.256Z,10.80
2023-04-22T23:56:52.640Z,10.70
2023-04-22T23:59:19.422Z,10.70
